To NAV CANADA Home Page Login to a new session Search on AWWS site Feedback and Comments Disclaimer Vers la page française équivalente Tips FAQ What's new on the site To the Forecasts and Observations / NOTAM section To "File a Flight Plan" website Publications and other links Update of the User's profile FIC Telephone Numbers My Weather Data Folder Route Weather Data Regional Weather Data Local Weather Data To the Forecasts and Observations / NOTAM section
Request Generated 02/23/2017 at 20:45:47 UTC . Weather information available at that time is displayed.

METAR/TAF

CARTWRIGHT/NL    

METAR CWCA 232000Z 36005KT 15SM BKN020 BKN200 M02/M05 A2969 RMK
SC5CI1 SLP056=
METAR CWCA 231900Z VRB02KT 15SM SCT006 OVC020 M03/M04 A2968 RMK
ST3SC5 SLP053=
METAR CWCA 231800Z 36005KT 15SM SCT006 OVC020 M03/M04 A2967 RMK
ST3SC5 SLP050=

TAF CYCA 231938Z 2320/2408 ADVISORY OFFSITE VRB03KT P6SM BKN020 TEMPO
2320/2324 SCT020 PROB30 2320/2324 2SM -FZDZ BR OVC006
FM240000 30006KT P6SM BKN030 TEMPO 2400/2408 5SM -SHSN BKN015
RMK NXT FCST BY 240200Z=
Your time UTC time
Weather data provided by Environment Canada and NAV CANADA